Cala Pula — IBID — position and weather

sailwx.info

Track history (hours):
 
Tides and Currents Weather Stations Pressure Air Temp Water Temp Dewpoint Dewpoint Depression Visibility Wind Speed Wind Dir Waves Ship Positions

Cala Pula

Last reported at 2017-Mar-20 02:21 UTC. Time now 2017-Mar-29 15:18 UTC.
Position N 35°04' W 009°37'.
Warning: this ship's position is 9 days out of date.

Length 189 m; draft 7.4 m.

Type: Cargo ship. MMSI: 247585000.

Date/timePositionNaut miles runAvg speedWind from/ knotsBaromVisibWave heightAir tempDewpointWater temp
2017-Mar-20 02:21N 35°04' W 009°37'1821.3
2017-Mar-20 01:32N 35°09' W 009°16'2121.5
2017-Mar-20 00:33N 35°16' W 008°52'5121.4
2017-Mar-19 22:09N 35°32' W 007°52'1321.8
2017-Mar-19 21:33N 35°36' W 007°37'9621.4
2017-Mar-19 17:05N 35°58' W 005°42'1121.1
2017-Mar-19 16:34N 35°60' W 005°29'2120.8
2017-Mar-19 15:33N 36°04' W 005°03'2221.6
2017-Mar-19 14:33N 36°08' W 004°37'2921.3
2017-Mar-19 13:10N 36°12' W 004°01'1422.0
2017-Mar-19 12:33N 36°15' W 003°45'13420.9
2017-Mar-19 06:10N 37°09' W 001°12'1822.0
2017-Mar-19 05:22N 37°20' W 000°54'1921.9
2017-Mar-19 04:29N 37°33' W 000°36'2121.4
2017-Mar-19 03:31N 37°49' W 000°20'2121.5
2017-Mar-19 02:33N 38°03' W 000°01'2121.3
2017-Mar-19 01:33N 38°19' E 000°17'2222.0
2017-Mar-19 00:33N 38°36' E 000°35'2121.0
2017-Mar-18 23:33N 38°52' E 000°53'2020.7
2017-Mar-18 22:33N 39°07' E 001°11'2120.5
2017-Mar-18 21:33N 39°20' E 001°31'2221.6
2017-Mar-18 20:33N 39°33' E 001°53'2121.5
2017-Mar-18 19:33N 39°46' E 002°15'2222.0
2017-Mar-18 18:33N 40°00' E 002°38'2222.2
2017-Mar-18 17:33N 40°14' E 003°00'25421.1
2017-Mar-18 05:33N 43°09' E 007°07'2121.3
2017-Mar-18 04:33N 43°23' E 007°28'2221.6
2017-Mar-18 03:33N 43°37' E 007°51'4321.6
2017-Mar-18 01:33N 44°10' E 008°29'6 5.5
2017-Mar-18 00:28N 44°16' E 008°27'0 0.0
2017-Mar-17 23:29N 44°16' E 008°27'0 0.0
2017-Mar-17 22:29N 44°16' E 008°27'0 0.0
2017-Mar-17 21:29N 44°16' E 008°27'0 0.0
2017-Mar-17 20:31N 44°16' E 008°27'0 0.0
2017-Mar-17 19:31N 44°16' E 008°27'0 0.0
2017-Mar-17 18:25N 44°16' E 008°27'0 0.0
2017-Mar-17 17:29N 44°16' E 008°27'0 0.0
2017-Mar-17 16:28N 44°16' E 008°27'0 0.0
2017-Mar-17 15:31N 44°16' E 008°27'0 0.0
2017-Mar-17 14:31N 44°16' E 008°27'0 0.0
2017-Mar-17 13:32N 44°16' E 008°27'0 0.0
2017-Mar-17 12:18N 44°16' E 008°27'0 0.0
2017-Mar-17 11:24N 44°16' E 008°27'0 0.0
2017-Mar-17 10:31N 44°16' E 008°27'0 0.0
2017-Mar-17 09:31N 44°16' E 008°27'0 0.0
2017-Mar-17 08:31N 44°16' E 008°27'0 0.0
2017-Mar-17 07:28N 44°16' E 008°27'0 0.0
2017-Mar-17 06:22N 44°16' E 008°27'3 3.8
2017-Mar-17 05:33N 44°14' E 008°30'4319.0
2017-Mar-17 03:17N 43°41' E 007°52'1520.3
2017-Mar-17 02:33N 43°31' E 007°36'2020.5
2017-Mar-17 01:33N 43°18' E 007°15'4521.0
2017-Mar-16 23:25N 42°50' E 006°27'1820.9
2017-Mar-16 22:33N 42°42' E 006°05'2120.8
2017-Mar-16 21:33N 42°32' E 005°40'2121.2
2017-Mar-16 20:33N 42°22' E 005°15'2620.9
2017-Mar-16 19:18N 42°09' E 004°43'5920.9
2017-Mar-16 16:28N 41°41' E 003°34'1920.7
2017-Mar-16 15:33N 41°32' E 003°12'51811.5
2017-Mar-14 18:33N 35°59' W 005°17'24715.4
2017-Mar-14 02:33N 38°29' W 009°24'1413.6
2017-Mar-14 01:33N 38°41' W 009°15'7 0.6
2017-Mar-13 14:28N 38°43' W 009°07'8 9.0
2017-Mar-13 13:33N 38°41' W 009°17'1212.1
2017-Mar-13 12:33N 38°35' W 009°30'1817.5
2017-Mar-13 11:33N 38°31' W 009°52'67219.2
2017-Mar-12 00:33N 36°51' W 023°52'2020.2
2017-Mar-11 23:33N 36°47' W 024°16'2020.1
2017-Mar-11 22:34N 36°43' W 024°41'2020.2
2017-Mar-11 21:33N 36°38' W 025°05'2020.1
2017-Mar-11 20:34N 36°33' W 025°30'2020.2
2017-Mar-11 19:33N 36°28' W 025°54'  
Track history (hours):
 
Tides and Currents Weather Stations Pressure Air Temp Water Temp Dewpoint Dewpoint Depression Visibility Wind Speed Wind Dir Waves Ship Positions

Cala Pula

Last reported at 2017-Mar-20 02:21 UTC. Time now 2017-Mar-29 15:18 UTC.
Position N 35°04' W 009°37'.
Warning: this ship's position is 9 days out of date.

Length 189 m; draft 7.4 m.

Type: Cargo ship. MMSI: 247585000.

Date/timePositionNaut miles runAvg speedWind from/ knotsBaromVisibWave heightAir tempDewpointWater temp
2017-Mar-20 02:21N 35°04' W 009°37'1821.3
2017-Mar-20 01:32N 35°09' W 009°16'2121.5
2017-Mar-20 00:33N 35°16' W 008°52'5121.4
2017-Mar-19 22:09N 35°32' W 007°52'1321.8
2017-Mar-19 21:33N 35°36' W 007°37'9621.4
2017-Mar-19 17:05N 35°58' W 005°42'1121.1
2017-Mar-19 16:34N 35°60' W 005°29'2120.8
2017-Mar-19 15:33N 36°04' W 005°03'2221.6
2017-Mar-19 14:33N 36°08' W 004°37'2921.3
2017-Mar-19 13:10N 36°12' W 004°01'1422.0
2017-Mar-19 12:33N 36°15' W 003°45'13420.9
2017-Mar-19 06:10N 37°09' W 001°12'1822.0
2017-Mar-19 05:22N 37°20' W 000°54'1921.9
2017-Mar-19 04:29N 37°33' W 000°36'2121.4
2017-Mar-19 03:31N 37°49' W 000°20'2121.5
2017-Mar-19 02:33N 38°03' W 000°01'2121.3
2017-Mar-19 01:33N 38°19' E 000°17'2222.0
2017-Mar-19 00:33N 38°36' E 000°35'2121.0
2017-Mar-18 23:33N 38°52' E 000°53'2020.7
2017-Mar-18 22:33N 39°07' E 001°11'2120.5
2017-Mar-18 21:33N 39°20' E 001°31'2221.6
2017-Mar-18 20:33N 39°33' E 001°53'2121.5
2017-Mar-18 19:33N 39°46' E 002°15'2222.0
2017-Mar-18 18:33N 40°00' E 002°38'2222.2
2017-Mar-18 17:33N 40°14' E 003°00'25421.1
2017-Mar-18 05:33N 43°09' E 007°07'2121.3
2017-Mar-18 04:33N 43°23' E 007°28'2221.6
2017-Mar-18 03:33N 43°37' E 007°51'4321.6
2017-Mar-18 01:33N 44°10' E 008°29'6 5.5
2017-Mar-18 00:28N 44°16' E 008°27'0 0.0
2017-Mar-17 23:29N 44°16' E 008°27'0 0.0
2017-Mar-17 22:29N 44°16' E 008°27'0 0.0
2017-Mar-17 21:29N 44°16' E 008°27'0 0.0
2017-Mar-17 20:31N 44°16' E 008°27'0 0.0
2017-Mar-17 19:31N 44°16' E 008°27'0 0.0
2017-Mar-17 18:25N 44°16' E 008°27'0 0.0
2017-Mar-17 17:29N 44°16' E 008°27'0 0.0
2017-Mar-17 16:28N 44°16' E 008°27'0 0.0
2017-Mar-17 15:31N 44°16' E 008°27'0 0.0
2017-Mar-17 14:31N 44°16' E 008°27'0 0.0
2017-Mar-17 13:32N 44°16' E 008°27'0 0.0
2017-Mar-17 12:18N 44°16' E 008°27'0 0.0
2017-Mar-17 11:24N 44°16' E 008°27'0 0.0
2017-Mar-17 10:31N 44°16' E 008°27'0 0.0
2017-Mar-17 09:31N 44°16' E 008°27'0 0.0
2017-Mar-17 08:31N 44°16' E 008°27'0 0.0
2017-Mar-17 07:28N 44°16' E 008°27'0 0.0
2017-Mar-17 06:22N 44°16' E 008°27'3 3.8
2017-Mar-17 05:33N 44°14' E 008°30'4319.0
2017-Mar-17 03:17N 43°41' E 007°52'1520.3
2017-Mar-17 02:33N 43°31' E 007°36'2020.5
2017-Mar-17 01:33N 43°18' E 007°15'4521.0
2017-Mar-16 23:25N 42°50' E 006°27'1820.9
2017-Mar-16 22:33N 42°42' E 006°05'2120.8
2017-Mar-16 21:33N 42°32' E 005°40'2121.2
2017-Mar-16 20:33N 42°22' E 005°15'2620.9
2017-Mar-16 19:18N 42°09' E 004°43'5920.9
2017-Mar-16 16:28N 41°41' E 003°34'1920.7
2017-Mar-16 15:33N 41°32' E 003°12'51811.5
2017-Mar-14 18:33N 35°59' W 005°17'24715.4
2017-Mar-14 02:33N 38°29' W 009°24'1413.6
2017-Mar-14 01:33N 38°41' W 009°15'7 0.6
2017-Mar-13 14:28N 38°43' W 009°07'8 9.0
2017-Mar-13 13:33N 38°41' W 009°17'1212.1
2017-Mar-13 12:33N 38°35' W 009°30'1817.5
2017-Mar-13 11:33N 38°31' W 009°52'67219.2
2017-Mar-12 00:33N 36°51' W 023°52'2020.2
2017-Mar-11 23:33N 36°47' W 024°16'2020.1
2017-Mar-11 22:34N 36°43' W 024°41'2020.2
2017-Mar-11 21:33N 36°38' W 025°05'2020.1
2017-Mar-11 20:34N 36°33' W 025°30'2020.2
2017-Mar-11 19:33N 36°28' W 025°54'  

Dump ship's entire track history